Arctic Village Airport Arctic Village US
ICAO: PARC
IATA:
Category: Medium
Scheduled Services:

Elevation: 2092 ft
TransAlt. 18000 ft.

Airport Communications:
ANCHORAGE CNTR:135
AWOS 3:135.75
CTAF:122.9
FAIRBANKS RDO:122.1

PARC Zoom In..

If you have problems with the map follow the link
https://www.worldairports.se/pages/airport.php?
ICAO=PARC

Runways:

(A) RW 02 length 4500 ft width 75 ft
---- / hdg 19

(B) RW 20 length 4500 ft width 75 ft
---- / hdg 199

Location; PARC
Day. 21 / Time. 20.56 Zulu
* Altimeter: 29.34
* Temperature: -22° c. 7.6°f.
* Wind from: 000° Speed 00 kn.
Dewpoint: -24° c.
Visibility: 8 Statute Miles.
Clouds: Overcast 7500 ft.

PARC 212056Z AUTO 00000KT 8SM OVC075 M22/M24 A2934 RMK AO2 SLP038 T12171239 53002 FZRANO


Wind - Calm.

 
 
jpsmedia worldairports.se 2020   terms of use